sensor_id;sensor_type;location;lat;lon;timestamp;P1;durP1;ratioP1;P2;durP2;ratioP2
2320;SDS011;15376;48.540;9.268;2023-04-06T00:01:06;13.53;;;11.43;;
2320;SDS011;15376;48.540;9.268;2023-04-06T00:03:32;14.37;;;11.70;;
2320;SDS011;15376;48.540;9.268;2023-04-06T00:05:58;14.27;;;12.30;;
2320;SDS011;15376;48.540;9.268;2023-04-06T00:08:23;15.00;;;12.33;;
2320;SDS011;15376;48.540;9.268;2023-04-06T00:10:49;13.83;;;12.10;;
2320;SDS011;15376;48.540;9.268;2023-04-06T00:13:15;14.07;;;11.63;;
2320;SDS011;15376;48.540;9.268;2023-04-06T00:15:40;15.30;;;12.20;;
2320;SDS011;15376;48.540;9.268;2023-04-06T00:18:06;14.43;;;12.50;;
2320;SDS011;15376;48.540;9.268;2023-04-06T00:20:31;15.53;;;11.53;;
2320;SDS011;15376;48.540;9.268;2023-04-06T00:22:56;13.00;;;11.60;;
2320;SDS011;15376;48.540;9.268;2023-04-06T00:25:22;17.73;;;11.67;;
2320;SDS011;15376;48.540;9.268;2023-04-06T00:27:47;13.10;;;11.80;;
2320;SDS011;15376;48.540;9.268;2023-04-06T00:30:13;13.13;;;10.67;;
2320;SDS011;15376;48.540;9.268;2023-04-06T00:32:38;14.40;;;12.53;;
2320;SDS011;15376;48.540;9.268;2023-04-06T00:35:04;14.50;;;11.53;;
2320;SDS011;15376;48.540;9.268;2023-04-06T00:37:30;13.87;;;12.07;;
2320;SDS011;15376;48.540;9.268;2023-04-06T00:39:56;14.77;;;11.47;;
2320;SDS011;15376;48.540;9.268;2023-04-06T00:42:21;12.00;;;10.73;;
2320;SDS011;15376;48.540;9.268;2023-04-06T00:44:52;13.07;;;11.53;;
2320;SDS011;15376;48.540;9.268;2023-04-06T00:47:21;14.37;;;11.73;;
2320;SDS011;15376;48.540;9.268;2023-04-06T00:49:47;15.10;;;11.00;;
2320;SDS011;15376;48.540;9.268;2023-04-06T00:52:13;13.80;;;12.00;;
2320;SDS011;15376;48.540;9.268;2023-04-06T00:54:39;19.30;;;12.10;;
2320;SDS011;15376;48.540;9.268;2023-04-06T00:57:05;15.03;;;11.90;;
2320;SDS011;15376;48.540;9.268;2023-04-06T00:59:30;11.50;;;10.30;;
2320;SDS011;15376;48.540;9.268;2023-04-06T01:01:56;10.80;;;9.70;;
2320;SDS011;15376;48.540;9.268;2023-04-06T01:04:21;12.90;;;11.10;;
2320;SDS011;15376;48.540;9.268;2023-04-06T01:06:50;12.60;;;11.37;;
2320;SDS011;15376;48.540;9.268;2023-04-06T01:09:19;16.53;;;11.47;;
2320;SDS011;15376;48.540;9.268;2023-04-06T01:11:44;16.33;;;12.37;;
2320;SDS011;15376;48.540;9.268;2023-04-06T01:14:09;16.07;;;12.60;;
2320;SDS011;15376;48.540;9.268;2023-04-06T01:16:35;13.23;;;11.37;;
2320;SDS011;15376;48.540;9.268;2023-04-06T01:19:06;17.33;;;12.90;;
2320;SDS011;15376;48.540;9.268;2023-04-06T01:21:33;14.50;;;12.85;;
2320;SDS011;15376;48.540;9.268;2023-04-06T01:23:59;15.03;;;12.90;;
2320;SDS011;15376;48.540;9.268;2023-04-06T01:26:24;14.03;;;11.87;;
2320;SDS011;15376;48.540;9.268;2023-04-06T01:28:51;15.57;;;12.03;;
2320;SDS011;15376;48.540;9.268;2023-04-06T01:31:17;17.20;;;13.07;;
2320;SDS011;15376;48.540;9.268;2023-04-06T01:33:42;14.73;;;12.97;;
2320;SDS011;15376;48.540;9.268;2023-04-06T01:36:08;13.07;;;11.57;;
2320;SDS011;15376;48.540;9.268;2023-04-06T01:38:33;15.80;;;12.17;;
2320;SDS011;15376;48.540;9.268;2023-04-06T01:40:59;12.90;;;11.43;;
2320;SDS011;15376;48.540;9.268;2023-04-06T01:43:25;14.57;;;12.03;;
2320;SDS011;15376;48.540;9.268;2023-04-06T01:45:50;14.67;;;12.40;;
2320;SDS011;15376;48.540;9.268;2023-04-06T01:48:16;14.17;;;12.67;;
2320;SDS011;15376;48.540;9.268;2023-04-06T01:50:42;14.53;;;12.80;;
2320;SDS011;15376;48.540;9.268;2023-04-06T01:53:07;16.40;;;12.60;;
2320;SDS011;15376;48.540;9.268;2023-04-06T01:55:32;14.07;;;11.90;;
2320;SDS011;15376;48.540;9.268;2023-04-06T01:57:58;14.47;;;12.10;;
2320;SDS011;15376;48.540;9.268;2023-04-06T02:00:23;14.57;;;11.63;;
2320;SDS011;15376;48.540;9.268;2023-04-06T02:02:48;13.27;;;10.97;;
2320;SDS011;15376;48.540;9.268;2023-04-06T02:05:14;15.83;;;11.97;;
2320;SDS011;15376;48.540;9.268;2023-04-06T02:07:40;12.20;;;10.90;;
2320;SDS011;15376;48.540;9.268;2023-04-06T02:10:15;11.40;;;10.27;;
2320;SDS011;15376;48.540;9.268;2023-04-06T02:12:40;15.43;;;12.10;;
2320;SDS011;15376;48.540;9.268;2023-04-06T02:15:06;13.40;;;11.63;;
2320;SDS011;15376;48.540;9.268;2023-04-06T02:17:32;14.73;;;12.27;;
2320;SDS011;15376;48.540;9.268;2023-04-06T02:19:57;12.50;;;11.20;;
2320;SDS011;15376;48.540;9.268;2023-04-06T02:22:22;13.60;;;11.77;;
2320;SDS011;15376;48.540;9.268;2023-04-06T02:24:48;15.20;;;12.80;;
2320;SDS011;15376;48.540;9.268;2023-04-06T02:27:14;19.90;;;12.90;;
2320;SDS011;15376;48.540;9.268;2023-04-06T02:29:39;16.15;;;13.82;;
2320;SDS011;15376;48.540;9.268;2023-04-06T02:32:05;14.10;;;12.57;;
2320;SDS011;15376;48.540;9.268;2023-04-06T02:34:30;14.07;;;11.80;;
2320;SDS011;15376;48.540;9.268;2023-04-06T02:36:56;13.97;;;11.80;;
2320;SDS011;15376;48.540;9.268;2023-04-06T02:39:21;13.17;;;11.67;;
2320;SDS011;15376;48.540;9.268;2023-04-06T02:41:47;13.30;;;11.95;;
2320;SDS011;15376;48.540;9.268;2023-04-06T02:44:13;13.57;;;12.03;;
2320;SDS011;15376;48.540;9.268;2023-04-06T02:46:38;13.50;;;10.87;;
2320;SDS011;15376;48.540;9.268;2023-04-06T02:49:03;13.67;;;12.10;;
2320;SDS011;15376;48.540;9.268;2023-04-06T02:51:29;17.00;;;13.10;;
2320;SDS011;15376;48.540;9.268;2023-04-06T02:53:54;17.50;;;12.00;;
2320;SDS011;15376;48.540;9.268;2023-04-06T02:56:20;13.70;;;11.83;;
2320;SDS011;15376;48.540;9.268;2023-04-06T02:58:46;15.38;;;12.55;;
2320;SDS011;15376;48.540;9.268;2023-04-06T03:01:12;15.83;;;12.23;;
2320;SDS011;15376;48.540;9.268;2023-04-06T03:03:37;16.33;;;13.33;;
2320;SDS011;15376;48.540;9.268;2023-04-06T03:06:03;20.27;;;13.43;;
2320;SDS011;15376;48.540;9.268;2023-04-06T03:08:28;16.27;;;12.00;;
2320;SDS011;15376;48.540;9.268;2023-04-06T03:10:54;16.00;;;12.07;;
2320;SDS011;15376;48.540;9.268;2023-04-06T03:13:20;14.77;;;12.80;;
2320;SDS011;15376;48.540;9.268;2023-04-06T03:15:46;14.48;;;12.52;;
2320;SDS011;15376;48.540;9.268;2023-04-06T03:18:11;14.23;;;12.03;;
2320;SDS011;15376;48.540;9.268;2023-04-06T03:20:37;14.73;;;11.40;;
2320;SDS011;15376;48.540;9.268;2023-04-06T03:23:02;14.60;;;10.90;;
2320;SDS011;15376;48.540;9.268;2023-04-06T03:25:27;14.10;;;12.70;;
2320;SDS011;15376;48.540;9.268;2023-04-06T03:27:55;15.02;;;13.48;;
2320;SDS011;15376;48.540;9.268;2023-04-06T03:30:20;16.80;;;13.50;;
2320;SDS011;15376;48.540;9.268;2023-04-06T03:32:45;13.77;;;12.17;;
2320;SDS011;15376;48.540;9.268;2023-04-06T03:35:11;13.30;;;11.70;;
2320;SDS011;15376;48.540;9.268;2023-04-06T03:37:36;15.37;;;12.57;;
2320;SDS011;15376;48.540;9.268;2023-04-06T03:40:02;13.10;;;11.70;;
2320;SDS011;15376;48.540;9.268;2023-04-06T03:42:28;19.38;;;13.15;;
2320;SDS011;15376;48.540;9.268;2023-04-06T03:44:54;14.57;;;11.90;;
2320;SDS011;15376;48.540;9.268;2023-04-06T03:47:19;15.33;;;12.47;;
2320;SDS011;15376;48.540;9.268;2023-04-06T03:49:44;17.53;;;12.97;;
2320;SDS011;15376;48.540;9.268;2023-04-06T03:52:10;14.37;;;12.87;;
2320;SDS011;15376;48.540;9.268;2023-04-06T03:54:36;13.73;;;11.97;;
2320;SDS011;15376;48.540;9.268;2023-04-06T03:57:01;17.13;;;12.77;;
2320;SDS011;15376;48.540;9.268;2023-04-06T03:59:27;14.90;;;13.20;;
2320;SDS011;15376;48.540;9.268;2023-04-06T04:01:52;18.90;;;14.60;;
2320;SDS011;15376;48.540;9.268;2023-04-06T04:04:18;15.70;;;12.70;;
2320;SDS011;15376;48.540;9.268;2023-04-06T04:06:43;17.07;;;13.80;;
2320;SDS011;15376;48.540;9.268;2023-04-06T04:09:08;16.50;;;13.53;;
2320;SDS011;15376;48.540;9.268;2023-04-06T04:11:34;16.80;;;12.63;;
2320;SDS011;15376;48.540;9.268;2023-04-06T04:13:59;17.10;;;12.57;;
2320;SDS011;15376;48.540;9.268;2023-04-06T04:16:25;15.93;;;12.90;;
2320;SDS011;15376;48.540;9.268;2023-04-06T04:18:50;19.33;;;13.53;;
2320;SDS011;15376;48.540;9.268;2023-04-06T04:21:16;17.90;;;13.77;;
2320;SDS011;15376;48.540;9.268;2023-04-06T04:23:41;18.20;;;13.27;;
2320;SDS011;15376;48.540;9.268;2023-04-06T04:26:06;16.80;;;13.13;;
2320;SDS011;15376;48.540;9.268;2023-04-06T04:28:32;19.47;;;13.63;;
2320;SDS011;15376;48.540;9.268;2023-04-06T04:30:57;18.40;;;13.67;;
2320;SDS011;15376;48.540;9.268;2023-04-06T04:33:23;20.70;;;15.23;;
2320;SDS011;15376;48.540;9.268;2023-04-06T04:35:48;15.90;;;12.77;;
2320;SDS011;15376;48.540;9.268;2023-04-06T04:38:13;17.77;;;13.40;;
2320;SDS011;15376;48.540;9.268;2023-04-06T04:40:39;15.00;;;13.40;;
2320;SDS011;15376;48.540;9.268;2023-04-06T04:43:05;16.73;;;13.30;;
2320;SDS011;15376;48.540;9.268;2023-04-06T04:45:30;17.30;;;14.00;;
2320;SDS011;15376;48.540;9.268;2023-04-06T04:47:56;17.80;;;13.93;;
2320;SDS011;15376;48.540;9.268;2023-04-06T04:50:21;18.17;;;13.20;;
2320;SDS011;15376;48.540;9.268;2023-04-06T04:52:46;19.00;;;14.67;;
2320;SDS011;15376;48.540;9.268;2023-04-06T04:55:13;22.70;;;15.00;;
2320;SDS011;15376;48.540;9.268;2023-04-06T04:57:38;20.73;;;17.40;;
2320;SDS011;15376;48.540;9.268;2023-04-06T05:00:04;19.63;;;15.10;;
2320;SDS011;15376;48.540;9.268;2023-04-06T05:02:30;20.92;;;16.17;;
2320;SDS011;15376;48.540;9.268;2023-04-06T05:04:56;17.03;;;14.40;;
2320;SDS011;15376;48.540;9.268;2023-04-06T05:07:21;20.97;;;15.03;;
2320;SDS011;15376;48.540;9.268;2023-04-06T05:09:47;19.88;;;14.60;;
2320;SDS011;15376;48.540;9.268;2023-04-06T05:12:13;23.40;;;15.00;;
2320;SDS011;15376;48.540;9.268;2023-04-06T05:14:38;19.73;;;15.33;;
2320;SDS011;15376;48.540;9.268;2023-04-06T05:17:04;20.67;;;14.03;;
2320;SDS011;15376;48.540;9.268;2023-04-06T05:19:29;18.37;;;14.87;;
2320;SDS011;15376;48.540;9.268;2023-04-06T05:21:55;21.63;;;14.77;;
2320;SDS011;15376;48.540;9.268;2023-04-06T05:24:20;16.40;;;14.33;;
2320;SDS011;15376;48.540;9.268;2023-04-06T05:26:46;20.00;;;14.93;;
2320;SDS011;15376;48.540;9.268;2023-04-06T05:29:13;23.13;;;14.55;;
2320;SDS011;15376;48.540;9.268;2023-04-06T05:31:38;16.20;;;13.20;;
2320;SDS011;15376;48.540;9.268;2023-04-06T05:34:04;19.73;;;14.77;;
2320;SDS011;15376;48.540;9.268;2023-04-06T05:36:29;16.23;;;12.90;;
2320;SDS011;15376;48.540;9.268;2023-04-06T05:38:57;18.27;;;12.82;;
2320;SDS011;15376;48.540;9.268;2023-04-06T05:41:22;15.10;;;13.07;;
2320;SDS011;15376;48.540;9.268;2023-04-06T05:43:48;19.40;;;13.80;;
2320;SDS011;15376;48.540;9.268;2023-04-06T05:46:13;18.93;;;13.90;;
2320;SDS011;15376;48.540;9.268;2023-04-06T05:48:39;16.63;;;13.07;;
2320;SDS011;15376;48.540;9.268;2023-04-06T05:51:04;19.50;;;13.77;;
2320;SDS011;15376;48.540;9.268;2023-04-06T05:53:31;32.53;;;16.88;;
2320;SDS011;15376;48.540;9.268;2023-04-06T05:55:57;20.00;;;16.77;;
2320;SDS011;15376;48.540;9.268;2023-04-06T05:58:22;20.50;;;16.03;;
2320;SDS011;15376;48.540;9.268;2023-04-06T06:00:48;16.90;;;14.17;;
2320;SDS011;15376;48.540;9.268;2023-04-06T06:03:13;19.10;;;14.30;;
2320;SDS011;15376;48.540;9.268;2023-04-06T06:05:42;14.95;;;13.15;;
2320;SDS011;15376;48.540;9.268;2023-04-06T06:08:10;17.93;;;13.50;;
2320;SDS011;15376;48.540;9.268;2023-04-06T06:10:35;20.50;;;15.80;;
2320;SDS011;15376;48.540;9.268;2023-04-06T06:13:03;15.90;;;13.27;;
2320;SDS011;15376;48.540;9.268;2023-04-06T06:15:28;18.50;;;15.00;;
2320;SDS011;15376;48.540;9.268;2023-04-06T06:17:54;17.83;;;14.27;;
2320;SDS011;15376;48.540;9.268;2023-04-06T06:20:19;23.87;;;13.73;;
2320;SDS011;15376;48.540;9.268;2023-04-06T06:22:45;18.20;;;14.57;;
2320;SDS011;15376;48.540;9.268;2023-04-06T06:25:10;17.50;;;13.40;;
2320;SDS011;15376;48.540;9.268;2023-04-06T06:27:35;20.77;;;14.20;;
2320;SDS011;15376;48.540;9.268;2023-04-06T06:30:01;24.23;;;18.67;;
2320;SDS011;15376;48.540;9.268;2023-04-06T06:32:27;15.40;;;13.63;;
2320;SDS011;15376;48.540;9.268;2023-04-06T06:34:53;20.50;;;14.27;;
2320;SDS011;15376;48.540;9.268;2023-04-06T06:37:18;17.60;;;14.10;;
2320;SDS011;15376;48.540;9.268;2023-04-06T06:39:43;19.10;;;12.93;;
2320;SDS011;15376;48.540;9.268;2023-04-06T06:42:09;18.43;;;12.73;;
2320;SDS011;15376;48.540;9.268;2023-04-06T06:44:34;15.17;;;13.10;;
2320;SDS011;15376;48.540;9.268;2023-04-06T06:47:00;15.50;;;12.63;;
2320;SDS011;15376;48.540;9.268;2023-04-06T06:49:25;18.10;;;14.00;;
2320;SDS011;15376;48.540;9.268;2023-04-06T06:51:50;17.47;;;13.60;;
2320;SDS011;15376;48.540;9.268;2023-04-06T06:54:16;19.33;;;12.60;;
2320;SDS011;15376;48.540;9.268;2023-04-06T06:56:41;19.70;;;13.70;;
2320;SDS011;15376;48.540;9.268;2023-04-06T06:59:06;22.00;;;18.27;;
2320;SDS011;15376;48.540;9.268;2023-04-06T07:01:32;15.53;;;13.53;;
2320;SDS011;15376;48.540;9.268;2023-04-06T07:03:59;23.00;;;14.77;;
2320;SDS011;15376;48.540;9.268;2023-04-06T07:06:24;18.77;;;14.90;;
2320;SDS011;15376;48.540;9.268;2023-04-06T07:08:50;14.10;;;12.60;;
2320;SDS011;15376;48.540;9.268;2023-04-06T07:11:15;15.97;;;11.83;;
2320;SDS011;15376;48.540;9.268;2023-04-06T07:13:41;15.63;;;12.80;;
2320;SDS011;15376;48.540;9.268;2023-04-06T07:16:07;15.43;;;12.83;;
2320;SDS011;15376;48.540;9.268;2023-04-06T07:18:32;17.60;;;12.77;;
2320;SDS011;15376;48.540;9.268;2023-04-06T07:20:58;17.03;;;13.47;;
2320;SDS011;15376;48.540;9.268;2023-04-06T07:23:23;16.10;;;12.50;;
2320;SDS011;15376;48.540;9.268;2023-04-06T07:25:49;14.23;;;13.00;;
2320;SDS011;15376;48.540;9.268;2023-04-06T07:28:17;13.90;;;11.83;;
2320;SDS011;15376;48.540;9.268;2023-04-06T07:30:42;18.17;;;13.43;;
2320;SDS011;15376;48.540;9.268;2023-04-06T07:33:08;13.57;;;12.13;;
2320;SDS011;15376;48.540;9.268;2023-04-06T07:35:33;14.90;;;13.00;;
2320;SDS011;15376;48.540;9.268;2023-04-06T07:37:59;15.57;;;12.70;;
2320;SDS011;15376;48.540;9.268;2023-04-06T07:40:25;13.70;;;12.40;;
2320;SDS011;15376;48.540;9.268;2023-04-06T07:42:51;13.33;;;11.50;;
2320;SDS011;15376;48.540;9.268;2023-04-06T07:45:17;14.70;;;12.27;;
2320;SDS011;15376;48.540;9.268;2023-04-06T07:47:43;15.50;;;12.00;;
2320;SDS011;15376;48.540;9.268;2023-04-06T07:50:09;12.20;;;11.00;;
2320;SDS011;15376;48.540;9.268;2023-04-06T07:52:38;15.50;;;12.83;;
2320;SDS011;15376;48.540;9.268;2023-04-06T07:55:04;15.23;;;12.30;;
2320;SDS011;15376;48.540;9.268;2023-04-06T07:57:29;13.93;;;11.70;;
2320;SDS011;15376;48.540;9.268;2023-04-06T07:59:55;12.33;;;11.00;;
2320;SDS011;15376;48.540;9.268;2023-04-06T08:02:20;13.67;;;12.17;;
2320;SDS011;15376;48.540;9.268;2023-04-06T08:04:46;14.37;;;12.30;;
2320;SDS011;15376;48.540;9.268;2023-04-06T08:07:11;15.53;;;12.00;;
2320;SDS011;15376;48.540;9.268;2023-04-06T08:09:37;13.07;;;11.70;;
2320;SDS011;15376;48.540;9.268;2023-04-06T08:12:05;14.13;;;12.60;;
2320;SDS011;15376;48.540;9.268;2023-04-06T08:14:31;13.33;;;12.03;;
2320;SDS011;15376;48.540;9.268;2023-04-06T08:16:56;13.90;;;12.40;;
2320;SDS011;15376;48.540;9.268;2023-04-06T08:19:21;14.60;;;11.73;;
2320;SDS011;15376;48.540;9.268;2023-04-06T08:21:47;17.73;;;11.93;;
2320;SDS011;15376;48.540;9.268;2023-04-06T08:24:13;12.90;;;11.60;;
2320;SDS011;15376;48.540;9.268;2023-04-06T08:26:39;14.20;;;12.50;;
2320;SDS011;15376;48.540;9.268;2023-04-06T08:29:04;17.30;;;13.57;;
2320;SDS011;15376;48.540;9.268;2023-04-06T08:31:32;20.93;;;12.67;;
2320;SDS011;15376;48.540;9.268;2023-04-06T08:34:00;15.40;;;11.90;;
2320;SDS011;15376;48.540;9.268;2023-04-06T08:36:26;13.83;;;12.40;;
2320;SDS011;15376;48.540;9.268;2023-04-06T08:38:52;18.33;;;11.50;;
2320;SDS011;15376;48.540;9.268;2023-04-06T08:41:18;14.10;;;12.60;;
2320;SDS011;15376;48.540;9.268;2023-04-06T08:43:48;15.43;;;11.50;;
2320;SDS011;15376;48.540;9.268;2023-04-06T08:46:17;13.03;;;10.37;;
2320;SDS011;15376;48.540;9.268;2023-04-06T08:48:43;13.17;;;10.87;;
2320;SDS011;15376;48.540;9.268;2023-04-06T08:51:10;12.60;;;11.00;;
2320;SDS011;15376;48.540;9.268;2023-04-06T08:53:37;11.30;;;10.20;;
2320;SDS011;15376;48.540;9.268;2023-04-06T08:56:03;12.07;;;10.77;;
2320;SDS011;15376;48.540;9.268;2023-04-06T08:58:32;13.70;;;9.97;;
2320;SDS011;15376;48.540;9.268;2023-04-06T09:01:00;11.43;;;10.33;;
2320;SDS011;15376;48.540;9.268;2023-04-06T09:03:28;12.27;;;11.07;;
2320;SDS011;15376;48.540;9.268;2023-04-06T09:05:55;49.47;;;33.33;;
2320;SDS011;15376;48.540;9.268;2023-04-06T09:08:21;73.63;;;44.23;;
2320;SDS011;15376;48.540;9.268;2023-04-06T09:10:46;15.93;;;12.07;;
2320;SDS011;15376;48.540;9.268;2023-04-06T09:13:13;14.10;;;11.67;;
2320;SDS011;15376;48.540;9.268;2023-04-06T09:15:39;15.07;;;10.10;;
2320;SDS011;15376;48.540;9.268;2023-04-06T09:18:04;13.73;;;11.93;;
2320;SDS011;15376;48.540;9.268;2023-04-06T09:20:30;11.40;;;10.20;;
2320;SDS011;15376;48.540;9.268;2023-04-06T09:22:55;13.30;;;10.53;;
2320;SDS011;15376;48.540;9.268;2023-04-06T09:25:22;14.00;;;10.13;;
2320;SDS011;15376;48.540;9.268;2023-04-06T09:27:48;15.03;;;11.47;;
2320;SDS011;15376;48.540;9.268;2023-04-06T09:30:23;16.07;;;12.47;;
2320;SDS011;15376;48.540;9.268;2023-04-06T09:32:50;11.93;;;10.70;;
2320;SDS011;15376;48.540;9.268;2023-04-06T09:35:18;21.03;;;18.03;;
2320;SDS011;15376;48.540;9.268;2023-04-06T09:37:45;12.33;;;10.90;;
2320;SDS011;15376;48.540;9.268;2023-04-06T09:40:12;16.17;;;11.50;;
2320;SDS011;15376;48.540;9.268;2023-04-06T09:42:41;13.20;;;11.47;;
2320;SDS011;15376;48.540;9.268;2023-04-06T09:45:07;11.70;;;9.97;;
2320;SDS011;15376;48.540;9.268;2023-04-06T09:47:33;11.73;;;10.57;;
2320;SDS011;15376;48.540;9.268;2023-04-06T09:50:01;11.37;;;9.30;;
2320;SDS011;15376;48.540;9.268;2023-04-06T09:52:31;11.17;;;10.07;;
2320;SDS011;15376;48.540;9.268;2023-04-06T09:55:02;11.20;;;10.10;;
2320;SDS011;15376;48.540;9.268;2023-04-06T09:57:31;11.63;;;10.53;;
2320;SDS011;15376;48.540;9.268;2023-04-06T10:00:03;14.80;;;10.93;;
2320;SDS011;15376;48.540;9.268;2023-04-06T10:05:22;10.23;;;9.33;;
2320;SDS011;15376;48.540;9.268;2023-04-06T10:07:56;12.60;;;11.40;;
2320;SDS011;15376;48.540;9.268;2023-04-06T10:10:22;10.33;;;9.43;;
2320;SDS011;15376;48.540;9.268;2023-04-06T10:12:48;10.87;;;10.03;;
2320;SDS011;15376;48.540;9.268;2023-04-06T10:15:15;10.57;;;9.67;;
2320;SDS011;15376;48.540;9.268;2023-04-06T10:17:41;10.80;;;9.90;;
2320;SDS011;15376;48.540;9.268;2023-04-06T10:20:17;10.70;;;9.80;;
2320;SDS011;15376;48.540;9.268;2023-04-06T10:23:02;11.47;;;10.27;;
2320;SDS011;15376;48.540;9.268;2023-04-06T10:25:55;10.90;;;9.90;;
2320;SDS011;15376;48.540;9.268;2023-04-06T10:28:22;13.33;;;10.17;;
2320;SDS011;15376;48.540;9.268;2023-04-06T10:30:48;10.73;;;9.83;;
2320;SDS011;15376;48.540;9.268;2023-04-06T10:33:15;10.60;;;9.70;;
2320;SDS011;15376;48.540;9.268;2023-04-06T10:35:42;11.27;;;10.27;;
2320;SDS011;15376;48.540;9.268;2023-04-06T10:38:08;10.07;;;9.23;;
2320;SDS011;15376;48.540;9.268;2023-04-06T10:40:37;11.83;;;10.60;;
2320;SDS011;15376;48.540;9.268;2023-04-06T10:43:11;10.67;;;9.70;;
2320;SDS011;15376;48.540;9.268;2023-04-06T10:45:38;13.20;;;12.00;;
2320;SDS011;15376;48.540;9.268;2023-04-06T10:48:16;9.87;;;8.97;;
2320;SDS011;15376;48.540;9.268;2023-04-06T10:50:49;13.33;;;12.07;;
2320;SDS011;15376;48.540;9.268;2023-04-06T10:53:22;10.83;;;9.80;;
2320;SDS011;15376;48.540;9.268;2023-04-06T10:55:49;10.43;;;9.53;;
2320;SDS011;15376;48.540;9.268;2023-04-06T10:58:25;9.70;;;8.90;;
2320;SDS011;15376;48.540;9.268;2023-04-06T11:00:51;9.47;;;8.67;;
2320;SDS011;15376;48.540;9.268;2023-04-06T11:03:17;10.20;;;9.33;;
2320;SDS011;15376;48.540;9.268;2023-04-06T11:05:46;9.80;;;8.90;;
2320;SDS011;15376;48.540;9.268;2023-04-06T11:08:30;10.23;;;9.23;;
2320;SDS011;15376;48.540;9.268;2023-04-06T11:11:03;9.70;;;8.90;;
2320;SDS011;15376;48.540;9.268;2023-04-06T11:13:40;10.93;;;10.03;;
2320;SDS011;15376;48.540;9.268;2023-04-06T11:16:11;10.60;;;9.70;;
2320;SDS011;15376;48.540;9.268;2023-04-06T11:18:49;10.60;;;9.23;;
2320;SDS011;15376;48.540;9.268;2023-04-06T11:21:15;10.20;;;9.20;;
2320;SDS011;15376;48.540;9.268;2023-04-06T11:23:40;9.83;;;8.90;;
2320;SDS011;15376;48.540;9.268;2023-04-06T11:26:10;11.37;;;10.17;;
2320;SDS011;15376;48.540;9.268;2023-04-06T11:28:40;9.77;;;8.73;;
2320;SDS011;15376;48.540;9.268;2023-04-06T11:31:08;9.47;;;8.60;;
2320;SDS011;15376;48.540;9.268;2023-04-06T11:33:37;10.30;;;9.40;;
2320;SDS011;15376;48.540;9.268;2023-04-06T11:36:04;9.43;;;8.53;;
2320;SDS011;15376;48.540;9.268;2023-04-06T11:38:30;8.40;;;7.50;;
2320;SDS011;15376;48.540;9.268;2023-04-06T11:40:56;9.20;;;8.30;;
2320;SDS011;15376;48.540;9.268;2023-04-06T11:43:30;9.60;;;8.60;;
2320;SDS011;15376;48.540;9.268;2023-04-06T11:46:02;10.23;;;9.17;;
2320;SDS011;15376;48.540;9.268;2023-04-06T11:48:29;7.70;;;6.90;;
2320;SDS011;15376;48.540;9.268;2023-04-06T11:50:58;9.20;;;8.30;;
2320;SDS011;15376;48.540;9.268;2023-04-06T11:53:28;8.47;;;7.23;;
2320;SDS011;15376;48.540;9.268;2023-04-06T11:55:54;9.03;;;7.77;;
2320;SDS011;15376;48.540;9.268;2023-04-06T11:58:20;7.00;;;6.30;;
2320;SDS011;15376;48.540;9.268;2023-04-06T12:00:45;6.97;;;6.23;;
2320;SDS011;15376;48.540;9.268;2023-04-06T12:03:12;7.03;;;6.33;;
2320;SDS011;15376;48.540;9.268;2023-04-06T12:05:37;7.90;;;6.60;;
2320;SDS011;15376;48.540;9.268;2023-04-06T12:08:03;7.30;;;6.60;;
2320;SDS011;15376;48.540;9.268;2023-04-06T12:10:28;10.33;;;8.43;;
2320;SDS011;15376;48.540;9.268;2023-04-06T12:12:54;11.90;;;9.87;;
2320;SDS011;15376;48.540;9.268;2023-04-06T12:15:19;21.37;;;8.33;;
2320;SDS011;15376;48.540;9.268;2023-04-06T12:17:45;89.40;;;12.10;;
2320;SDS011;15376;48.540;9.268;2023-04-06T12:20:10;30.43;;;7.50;;
2320;SDS011;15376;48.540;9.268;2023-04-06T12:22:36;47.37;;;10.97;;
2320;SDS011;15376;48.540;9.268;2023-04-06T12:25:02;13.20;;;7.30;;
2320;SDS011;15376;48.540;9.268;2023-04-06T12:27:27;7.43;;;6.00;;
2320;SDS011;15376;48.540;9.268;2023-04-06T12:29:53;8.70;;;5.67;;
2320;SDS011;15376;48.540;9.268;2023-04-06T12:32:18;6.97;;;6.27;;
2320;SDS011;15376;48.540;9.268;2023-04-06T12:34:44;7.80;;;6.60;;
2320;SDS011;15376;48.540;9.268;2023-04-06T12:37:09;6.00;;;5.40;;
2320;SDS011;15376;48.540;9.268;2023-04-06T12:39:35;10.23;;;5.50;;
2320;SDS011;15376;48.540;9.268;2023-04-06T12:42:00;8.33;;;6.33;;
2320;SDS011;15376;48.540;9.268;2023-04-06T12:44:27;7.40;;;6.13;;
2320;SDS011;15376;48.540;9.268;2023-04-06T12:46:52;5.60;;;5.10;;
2320;SDS011;15376;48.540;9.268;2023-04-06T12:49:18;9.23;;;6.33;;
2320;SDS011;15376;48.540;9.268;2023-04-06T12:51:44;5.77;;;5.30;;
2320;SDS011;15376;48.540;9.268;2023-04-06T12:54:10;7.70;;;5.50;;
2320;SDS011;15376;48.540;9.268;2023-04-06T12:56:36;7.43;;;5.07;;
2320;SDS011;15376;48.540;9.268;2023-04-06T12:59:02;8.50;;;5.60;;
2320;SDS011;15376;48.540;9.268;2023-04-06T13:01:27;5.40;;;4.90;;
2320;SDS011;15376;48.540;9.268;2023-04-06T13:03:56;5.73;;;5.20;;
2320;SDS011;15376;48.540;9.268;2023-04-06T13:06:22;6.40;;;4.60;;
2320;SDS011;15376;48.540;9.268;2023-04-06T13:08:52;5.50;;;5.00;;
2320;SDS011;15376;48.540;9.268;2023-04-06T13:11:17;6.77;;;6.00;;
2320;SDS011;15376;48.540;9.268;2023-04-06T13:13:45;8.23;;;6.17;;
2320;SDS011;15376;48.540;9.268;2023-04-06T13:16:10;20.40;;;16.80;;
2320;SDS011;15376;48.540;9.268;2023-04-06T13:18:36;12.87;;;10.77;;
2320;SDS011;15376;48.540;9.268;2023-04-06T13:21:03;10.13;;;6.13;;
2320;SDS011;15376;48.540;9.268;2023-04-06T13:23:31;8.83;;;6.80;;
2320;SDS011;15376;48.540;9.268;2023-04-06T13:25:57;6.60;;;5.90;;
2320;SDS011;15376;48.540;9.268;2023-04-06T13:28:24;7.27;;;6.00;;
2320;SDS011;15376;48.540;9.268;2023-04-06T13:30:51;5.30;;;4.80;;
2320;SDS011;15376;48.540;9.268;2023-04-06T13:33:16;7.03;;;5.13;;
2320;SDS011;15376;48.540;9.268;2023-04-06T13:35:44;6.27;;;5.63;;
2320;SDS011;15376;48.540;9.268;2023-04-06T13:38:10;6.00;;;5.27;;
2320;SDS011;15376;48.540;9.268;2023-04-06T13:40:38;5.47;;;4.97;;
2320;SDS011;15376;48.540;9.268;2023-04-06T13:43:04;6.23;;;5.53;;
2320;SDS011;15376;48.540;9.268;2023-04-06T13:45:30;5.33;;;4.90;;
2320;SDS011;15376;48.540;9.268;2023-04-06T13:47:55;6.37;;;5.20;;
2320;SDS011;15376;48.540;9.268;2023-04-06T13:50:21;6.53;;;5.77;;
2320;SDS011;15376;48.540;9.268;2023-04-06T13:52:46;11.60;;;8.67;;
2320;SDS011;15376;48.540;9.268;2023-04-06T13:55:11;8.97;;;6.10;;
2320;SDS011;15376;48.540;9.268;2023-04-06T13:57:37;8.20;;;6.00;;
2320;SDS011;15376;48.540;9.268;2023-04-06T14:00:02;5.33;;;4.77;;
2320;SDS011;15376;48.540;9.268;2023-04-06T14:02:28;9.73;;;7.10;;
2320;SDS011;15376;48.540;9.268;2023-04-06T14:04:54;11.73;;;6.90;;
2320;SDS011;15376;48.540;9.268;2023-04-06T14:07:20;6.77;;;4.93;;
2320;SDS011;15376;48.540;9.268;2023-04-06T14:09:46;17.13;;;10.57;;
2320;SDS011;15376;48.540;9.268;2023-04-06T14:12:12;6.23;;;5.63;;
2320;SDS011;15376;48.540;9.268;2023-04-06T14:14:37;4.77;;;4.13;;
2320;SDS011;15376;48.540;9.268;2023-04-06T14:17:02;19.40;;;12.80;;
2320;SDS011;15376;48.540;9.268;2023-04-06T14:19:28;16.67;;;11.67;;
2320;SDS011;15376;48.540;9.268;2023-04-06T14:21:54;15.13;;;10.90;;
2320;SDS011;15376;48.540;9.268;2023-04-06T14:24:19;8.50;;;7.60;;
2320;SDS011;15376;48.540;9.268;2023-04-06T14:26:45;36.13;;;26.67;;
2320;SDS011;15376;48.540;9.268;2023-04-06T14:29:11;9.67;;;8.03;;
2320;SDS011;15376;48.540;9.268;2023-04-06T14:31:36;6.30;;;5.63;;
2320;SDS011;15376;48.540;9.268;2023-04-06T14:34:02;4.40;;;3.77;;
2320;SDS011;15376;48.540;9.268;2023-04-06T14:36:30;5.63;;;4.50;;
2320;SDS011;15376;48.540;9.268;2023-04-06T14:39:01;6.93;;;6.27;;